Portada
METAR-TAF:

METAR-TAF

Aeroports :

Koné, Nova Caledònia

latitud: 21-03-12S, longitud: 164-50-18E, altitud: 7 m

METAR: manca

Hora: 13:07 (02:07 UTC)

Pronòstic

L'informe es va fer fa 3 hores i 7 minuts, a les 23:00 UTC
Pronòstic vàlid del 27 a les 00 UTC al 27 a les 24 UTC
Vent 8 kt del Sud/Sud-Oest
Visibilitat 10 km o més
Escasses núvols a una alçada de 2500 ft
Núvols disperses a una alçada de 4000 ft
Cel ennuvolat a una alçada de 6000 ft
Temporalment
l' 27 a les 00 UTC al 27 a les 24 UTC
Cel ennuvolat a una alçada de 1400 ft
Cel ennuvolat a una alçada de 2000 ft, Cumulus congestus.
xàfecs de pluja
Probabilitat 30% :
Temporalment
l' 27 a les 00 UTC al 27 a les 12 UTC
Visibilitat: 3000 m
Cel ennuvolat a una alçada de 1000 ft
Escasses núvols a una alçada de 1800 ft, Cumulonimbus.
xàfecs de pluja

TAF: NWWD 262300Z 2700/2724 21008KT 9999 FEW025 SCT040 BKN060 TEMPO 2700/2724 SHRA BKN014 BKN020TCU PROB30 TEMPO 2700/2712 3000 SHRA BKN010 FEW018CB

Observacions i pronòstics meteorològics de més de 4000 aeroports (METAR i TAF).

Les estacions disponibles són els punts grocs i vermells al mapa.

Posi el ratolí al punt desitjat per veure el nom de l'estació.

Feu clic per veure les observacions i els pronòstics meteorològics.

Per canviar el mapa: feu clic els botons verds amb una creu de color negre per apropar; al botó verd amb un guió per allunyar la imatge; o en les fletxes verdes per a mapes adjacents.


METAR-TAF: